IS42 weather

Lindstrom Heliport
Morton, Illinois, United States

Public forecast

Using degrees Fahrenheit for public forecast. Weather courtesy of forecast.io.

Closest aviation weather report (METAR) to Lindstrom Heliport

Closest report is General Wayne A. Downing Peoria International Airport, 14.8 nm (27.4 km) W. Retrieved 2019/12/11 01:54 UTC (42 minutes ago):

KPIA 110154Z 30005KT 10SM OVC037 M06/M12 A3037 RMK AO2 SLP296 T10611117

Closest aviation forecast (TAF) to Lindstrom Heliport

Closest forecast is General Wayne A. Downing Peoria International Airport, 14.8 nm (27.4 km) W. Retrieved 2019-12-11 00:27 UTC (2 hours ago):

TAF KPIA 102325Z 1100/1124 28008KT P6SM BKN040 FM111000 23005KT P6SM VCSH BKN040 TEMPO 1112/1116 5SM -SN FM111800 VRB04KT P6SM FEW100